sensor_id;sensor_type;location;lat;lon;timestamp;P1;durP1;ratioP1;P2;durP2;ratioP2
14876;SDS011;69691;48.172;17.070;2023-05-16T00:00:20;13.45;;;7.35;;
14876;SDS011;69691;48.172;17.070;2023-05-16T00:02:48;13.52;;;7.55;;
14876;SDS011;69691;48.172;17.070;2023-05-16T00:05:15;9.25;;;7.35;;
14876;SDS011;69691;48.172;17.070;2023-05-16T00:07:41;8.55;;;7.70;;
14876;SDS011;69691;48.172;17.070;2023-05-16T00:10:09;9.65;;;7.30;;
14876;SDS011;69691;48.172;17.070;2023-05-16T00:12:35;7.85;;;7.15;;
14876;SDS011;69691;48.172;17.070;2023-05-16T00:15:04;9.48;;;7.45;;
14876;SDS011;69691;48.172;17.070;2023-05-16T00:17:32;9.30;;;7.35;;
14876;SDS011;69691;48.172;17.070;2023-05-16T00:19:59;14.32;;;9.18;;
14876;SDS011;69691;48.172;17.070;2023-05-16T00:22:31;8.93;;;7.13;;
14876;SDS011;69691;48.172;17.070;2023-05-16T00:24:58;9.90;;;8.25;;
14876;SDS011;69691;48.172;17.070;2023-05-16T00:27:23;14.63;;;8.73;;
14876;SDS011;69691;48.172;17.070;2023-05-16T00:29:49;14.60;;;9.25;;
14876;SDS011;69691;48.172;17.070;2023-05-16T00:32:17;9.85;;;8.25;;
14876;SDS011;69691;48.172;17.070;2023-05-16T00:34:43;9.63;;;8.55;;
14876;SDS011;69691;48.172;17.070;2023-05-16T00:37:08;14.50;;;9.90;;
14876;SDS011;69691;48.172;17.070;2023-05-16T00:39:35;10.98;;;9.02;;
14876;SDS011;69691;48.172;17.070;2023-05-16T00:42:01;9.57;;;8.57;;
14876;SDS011;69691;48.172;17.070;2023-05-16T00:44:27;10.05;;;9.02;;
14876;SDS011;69691;48.172;17.070;2023-05-16T00:46:53;11.20;;;8.85;;
14876;SDS011;69691;48.172;17.070;2023-05-16T00:49:19;14.55;;;8.80;;
14876;SDS011;69691;48.172;17.070;2023-05-16T00:51:45;11.63;;;8.52;;
14876;SDS011;69691;48.172;17.070;2023-05-16T00:54:12;10.52;;;8.32;;
14876;SDS011;69691;48.172;17.070;2023-05-16T00:56:38;12.75;;;9.48;;
14876;SDS011;69691;48.172;17.070;2023-05-16T00:59:04;11.32;;;10.13;;
14876;SDS011;69691;48.172;17.070;2023-05-16T01:01:31;9.77;;;8.73;;
14876;SDS011;69691;48.172;17.070;2023-05-16T01:03:57;12.45;;;8.35;;
14876;SDS011;69691;48.172;17.070;2023-05-16T01:06:25;14.43;;;9.10;;
14876;SDS011;69691;48.172;17.070;2023-05-16T01:08:52;18.50;;;8.85;;
14876;SDS011;69691;48.172;17.070;2023-05-16T01:28:09;15.80;;;10.02;;
14876;SDS011;69691;48.172;17.070;2023-05-16T01:30:38;10.18;;;9.18;;
14876;SDS011;69691;48.172;17.070;2023-05-16T01:33:08;10.90;;;9.80;;
14876;SDS011;69691;48.172;17.070;2023-05-16T01:35:36;10.82;;;9.82;;
14876;SDS011;69691;48.172;17.070;2023-05-16T01:38:10;12.50;;;10.38;;
14876;SDS011;69691;48.172;17.070;2023-05-16T01:40:54;11.95;;;10.55;;
14876;SDS011;69691;48.172;17.070;2023-05-16T01:43:50;11.98;;;10.52;;
14876;SDS011;69691;48.172;17.070;2023-05-16T01:46:24;11.57;;;9.20;;
14876;SDS011;69691;48.172;17.070;2023-05-16T01:51:54;10.30;;;9.30;;
14876;SDS011;69691;48.172;17.070;2023-05-16T01:54:26;12.35;;;10.07;;
14876;SDS011;69691;48.172;17.070;2023-05-16T01:56:57;15.75;;;9.95;;
14876;SDS011;69691;48.172;17.070;2023-05-16T01:59:25;13.85;;;11.02;;
14876;SDS011;69691;48.172;17.070;2023-05-16T02:01:53;11.52;;;9.95;;
14876;SDS011;69691;48.172;17.070;2023-05-16T02:04:19;14.55;;;9.73;;
14876;SDS011;69691;48.172;17.070;2023-05-16T02:06:46;14.88;;;10.52;;
14876;SDS011;69691;48.172;17.070;2023-05-16T02:09:15;12.80;;;11.00;;
14876;SDS011;69691;48.172;17.070;2023-05-16T02:11:41;10.70;;;9.60;;
14876;SDS011;69691;48.172;17.070;2023-05-16T02:14:06;16.58;;;9.60;;
14876;SDS011;69691;48.172;17.070;2023-05-16T02:16:32;14.52;;;9.15;;
14876;SDS011;69691;48.172;17.070;2023-05-16T02:18:58;10.00;;;9.00;;
14876;SDS011;69691;48.172;17.070;2023-05-16T02:21:24;18.17;;;9.57;;
14876;SDS011;69691;48.172;17.070;2023-05-16T02:23:50;10.40;;;8.05;;
14876;SDS011;69691;48.172;17.070;2023-05-16T02:26:16;9.15;;;7.78;;
14876;SDS011;69691;48.172;17.070;2023-05-16T02:28:42;11.90;;;8.07;;
14876;SDS011;69691;48.172;17.070;2023-05-16T02:31:07;9.52;;;7.88;;
14876;SDS011;69691;48.172;17.070;2023-05-16T02:33:33;8.15;;;7.47;;
14876;SDS011;69691;48.172;17.070;2023-05-16T02:35:59;9.05;;;7.75;;
14876;SDS011;69691;48.172;17.070;2023-05-16T02:38:25;11.48;;;8.18;;
14876;SDS011;69691;48.172;17.070;2023-05-16T02:40:51;8.63;;;7.82;;
14876;SDS011;69691;48.172;17.070;2023-05-16T02:43:17;8.60;;;7.45;;
14876;SDS011;69691;48.172;17.070;2023-05-16T02:45:43;10.68;;;8.45;;
14876;SDS011;69691;48.172;17.070;2023-05-16T02:48:09;12.90;;;9.60;;
14876;SDS011;69691;48.172;17.070;2023-05-16T02:50:36;13.88;;;8.85;;
14876;SDS011;69691;48.172;17.070;2023-05-16T02:53:04;11.57;;;8.32;;
14876;SDS011;69691;48.172;17.070;2023-05-16T02:55:30;10.52;;;8.20;;
14876;SDS011;69691;48.172;17.070;2023-05-16T02:57:56;9.60;;;8.68;;
14876;SDS011;69691;48.172;17.070;2023-05-16T03:00:22;10.48;;;8.57;;
14876;SDS011;69691;48.172;17.070;2023-05-16T03:02:48;11.30;;;8.00;;
14876;SDS011;69691;48.172;17.070;2023-05-16T03:05:14;9.45;;;8.20;;
14876;SDS011;69691;48.172;17.070;2023-05-16T03:07:41;8.63;;;7.60;;
14876;SDS011;69691;48.172;17.070;2023-05-16T03:10:07;11.98;;;7.45;;
14876;SDS011;69691;48.172;17.070;2023-05-16T03:12:33;8.65;;;7.57;;
14876;SDS011;69691;48.172;17.070;2023-05-16T03:14:59;12.02;;;8.00;;
14876;SDS011;69691;48.172;17.070;2023-05-16T03:17:25;10.40;;;8.63;;
14876;SDS011;69691;48.172;17.070;2023-05-16T03:19:52;9.43;;;8.02;;
14876;SDS011;69691;48.172;17.070;2023-05-16T03:22:18;12.18;;;8.60;;
14876;SDS011;69691;48.172;17.070;2023-05-16T03:24:44;9.18;;;8.27;;
14876;SDS011;69691;48.172;17.070;2023-05-16T03:27:10;10.45;;;8.38;;
14876;SDS011;69691;48.172;17.070;2023-05-16T03:29:36;9.52;;;8.52;;
14876;SDS011;69691;48.172;17.070;2023-05-16T03:32:02;9.32;;;8.35;;
14876;SDS011;69691;48.172;17.070;2023-05-16T03:34:29;11.88;;;7.35;;
14876;SDS011;69691;48.172;17.070;2023-05-16T03:36:55;11.48;;;8.38;;
14876;SDS011;69691;48.172;17.070;2023-05-16T03:39:21;9.55;;;8.63;;
14876;SDS011;69691;48.172;17.070;2023-05-16T03:41:47;10.13;;;8.98;;
14876;SDS011;69691;48.172;17.070;2023-05-16T03:44:13;11.73;;;8.88;;
14876;SDS011;69691;48.172;17.070;2023-05-16T03:46:39;10.15;;;8.80;;
14876;SDS011;69691;48.172;17.070;2023-05-16T03:49:05;9.18;;;8.27;;
14876;SDS011;69691;48.172;17.070;2023-05-16T03:51:31;10.65;;;8.52;;
14876;SDS011;69691;48.172;17.070;2023-05-16T03:53:57;9.55;;;8.68;;
14876;SDS011;69691;48.172;17.070;2023-05-16T03:56:23;9.40;;;8.50;;
14876;SDS011;69691;48.172;17.070;2023-05-16T03:58:49;11.82;;;8.68;;
14876;SDS011;69691;48.172;17.070;2023-05-16T04:01:15;10.63;;;8.48;;
14876;SDS011;69691;48.172;17.070;2023-05-16T04:03:41;10.98;;;9.52;;
14876;SDS011;69691;48.172;17.070;2023-05-16T04:06:06;11.02;;;8.40;;
14876;SDS011;69691;48.172;17.070;2023-05-16T04:08:32;12.52;;;8.93;;
14876;SDS011;69691;48.172;17.070;2023-05-16T04:10:58;10.05;;;7.40;;
14876;SDS011;69691;48.172;17.070;2023-05-16T04:13:24;9.15;;;8.27;;
14876;SDS011;69691;48.172;17.070;2023-05-16T04:15:50;8.98;;;8.18;;
14876;SDS011;69691;48.172;17.070;2023-05-16T04:18:16;9.60;;;8.63;;
14876;SDS011;69691;48.172;17.070;2023-05-16T04:20:42;9.27;;;8.48;;
14876;SDS011;69691;48.172;17.070;2023-05-16T04:23:09;9.10;;;8.20;;
14876;SDS011;69691;48.172;17.070;2023-05-16T04:25:36;8.80;;;7.88;;
14876;SDS011;69691;48.172;17.070;2023-05-16T04:28:02;8.80;;;7.88;;
14876;SDS011;69691;48.172;17.070;2023-05-16T04:30:28;9.98;;;8.82;;
14876;SDS011;69691;48.172;17.070;2023-05-16T04:32:54;9.25;;;8.27;;
14876;SDS011;69691;48.172;17.070;2023-05-16T04:35:21;10.07;;;8.40;;
14876;SDS011;69691;48.172;17.070;2023-05-16T04:37:47;11.50;;;7.82;;
14876;SDS011;69691;48.172;17.070;2023-05-16T04:40:13;9.07;;;7.90;;
14876;SDS011;69691;48.172;17.070;2023-05-16T04:42:39;9.88;;;7.80;;
14876;SDS011;69691;48.172;17.070;2023-05-16T04:45:05;9.55;;;8.57;;
14876;SDS011;69691;48.172;17.070;2023-05-16T04:47:35;12.38;;;8.32;;
14876;SDS011;69691;48.172;17.070;2023-05-16T04:50:01;10.82;;;8.10;;
14876;SDS011;69691;48.172;17.070;2023-05-16T04:52:27;12.25;;;8.32;;
14876;SDS011;69691;48.172;17.070;2023-05-16T04:54:53;9.80;;;7.75;;
14876;SDS011;69691;48.172;17.070;2023-05-16T04:57:19;8.63;;;7.82;;
14876;SDS011;69691;48.172;17.070;2023-05-16T04:59:45;8.75;;;7.85;;
14876;SDS011;69691;48.172;17.070;2023-05-16T05:02:10;8.68;;;7.07;;
14876;SDS011;69691;48.172;17.070;2023-05-16T05:04:36;8.77;;;7.72;;
14876;SDS011;69691;48.172;17.070;2023-05-16T05:07:02;12.48;;;8.88;;
14876;SDS011;69691;48.172;17.070;2023-05-16T05:09:28;9.80;;;8.80;;
14876;SDS011;69691;48.172;17.070;2023-05-16T05:11:54;14.75;;;8.85;;
14876;SDS011;69691;48.172;17.070;2023-05-16T05:14:20;8.52;;;7.63;;
14876;SDS011;69691;48.172;17.070;2023-05-16T05:16:46;10.52;;;7.68;;
14876;SDS011;69691;48.172;17.070;2023-05-16T05:19:12;9.57;;;7.60;;
14876;SDS011;69691;48.172;17.070;2023-05-16T05:21:37;9.82;;;7.35;;
14876;SDS011;69691;48.172;17.070;2023-05-16T05:24:03;7.55;;;6.75;;
14876;SDS011;69691;48.172;17.070;2023-05-16T05:26:30;8.70;;;7.22;;
14876;SDS011;69691;48.172;17.070;2023-05-16T05:28:55;9.88;;;7.55;;
14876;SDS011;69691;48.172;17.070;2023-05-16T05:31:21;9.15;;;6.78;;
14876;SDS011;69691;48.172;17.070;2023-05-16T05:33:47;8.73;;;7.43;;
14876;SDS011;69691;48.172;17.070;2023-05-16T05:36:13;8.60;;;7.80;;
14876;SDS011;69691;48.172;17.070;2023-05-16T05:38:39;8.10;;;7.30;;
14876;SDS011;69691;48.172;17.070;2023-05-16T05:41:05;8.43;;;7.15;;
14876;SDS011;69691;48.172;17.070;2023-05-16T05:43:31;10.65;;;6.55;;
14876;SDS011;69691;48.172;17.070;2023-05-16T05:45:57;7.70;;;6.90;;
14876;SDS011;69691;48.172;17.070;2023-05-16T05:48:23;8.20;;;6.53;;
14876;SDS011;69691;48.172;17.070;2023-05-16T05:50:49;10.07;;;6.43;;
14876;SDS011;69691;48.172;17.070;2023-05-16T05:53:14;6.30;;;5.80;;
14876;SDS011;69691;48.172;17.070;2023-05-16T05:55:40;7.38;;;6.63;;
14876;SDS011;69691;48.172;17.070;2023-05-16T05:58:06;8.07;;;6.35;;
14876;SDS011;69691;48.172;17.070;2023-05-16T06:00:32;9.13;;;8.02;;
14876;SDS011;69691;48.172;17.070;2023-05-16T06:02:58;9.38;;;7.13;;
14876;SDS011;69691;48.172;17.070;2023-05-16T06:05:24;7.93;;;7.10;;
14876;SDS011;69691;48.172;17.070;2023-05-16T06:07:50;8.38;;;6.47;;
14876;SDS011;69691;48.172;17.070;2023-05-16T06:10:15;7.63;;;6.93;;
14876;SDS011;69691;48.172;17.070;2023-05-16T06:12:41;7.88;;;6.55;;
14876;SDS011;69691;48.172;17.070;2023-05-16T06:15:07;7.15;;;6.45;;
14876;SDS011;69691;48.172;17.070;2023-05-16T06:17:34;8.18;;;7.38;;
14876;SDS011;69691;48.172;17.070;2023-05-16T06:20:00;7.97;;;7.22;;
14876;SDS011;69691;48.172;17.070;2023-05-16T06:22:26;8.60;;;6.82;;
14876;SDS011;69691;48.172;17.070;2023-05-16T06:24:52;8.02;;;7.05;;
14876;SDS011;69691;48.172;17.070;2023-05-16T06:27:18;9.32;;;7.10;;
14876;SDS011;69691;48.172;17.070;2023-05-16T06:29:43;9.15;;;7.38;;
14876;SDS011;69691;48.172;17.070;2023-05-16T06:32:09;7.45;;;6.57;;
14876;SDS011;69691;48.172;17.070;2023-05-16T06:34:35;8.55;;;6.82;;
14876;SDS011;69691;48.172;17.070;2023-05-16T06:37:01;9.70;;;7.28;;
14876;SDS011;69691;48.172;17.070;2023-05-16T06:39:27;12.00;;;8.05;;
14876;SDS011;69691;48.172;17.070;2023-05-16T06:41:53;8.68;;;7.32;;
14876;SDS011;69691;48.172;17.070;2023-05-16T06:44:21;8.55;;;7.53;;
14876;SDS011;69691;48.172;17.070;2023-05-16T06:46:47;9.20;;;7.75;;
14876;SDS011;69691;48.172;17.070;2023-05-16T06:49:13;13.70;;;8.18;;
14876;SDS011;69691;48.172;17.070;2023-05-16T06:51:39;13.43;;;7.72;;
14876;SDS011;69691;48.172;17.070;2023-05-16T06:54:05;8.98;;;7.50;;
14876;SDS011;69691;48.172;17.070;2023-05-16T06:56:31;9.10;;;8.20;;
14876;SDS011;69691;48.172;17.070;2023-05-16T06:58:57;9.70;;;8.70;;
14876;SDS011;69691;48.172;17.070;2023-05-16T07:01:22;11.70;;;7.93;;
14876;SDS011;69691;48.172;17.070;2023-05-16T07:03:48;10.65;;;8.30;;
14876;SDS011;69691;48.172;17.070;2023-05-16T07:06:14;11.95;;;7.47;;
14876;SDS011;69691;48.172;17.070;2023-05-16T07:08:40;9.20;;;8.27;;
14876;SDS011;69691;48.172;17.070;2023-05-16T07:11:06;9.30;;;8.35;;
14876;SDS011;69691;48.172;17.070;2023-05-16T07:13:32;13.10;;;8.23;;
14876;SDS011;69691;48.172;17.070;2023-05-16T07:15:57;10.40;;;8.15;;
14876;SDS011;69691;48.172;17.070;2023-05-16T07:18:23;10.85;;;8.02;;
14876;SDS011;69691;48.172;17.070;2023-05-16T07:20:49;8.88;;;7.72;;
14876;SDS011;69691;48.172;17.070;2023-05-16T07:23:15;8.25;;;7.43;;
14876;SDS011;69691;48.172;17.070;2023-05-16T07:25:41;11.20;;;8.73;;
14876;SDS011;69691;48.172;17.070;2023-05-16T07:28:07;8.80;;;7.90;;
14876;SDS011;69691;48.172;17.070;2023-05-16T07:30:33;9.57;;;8.55;;
14876;SDS011;69691;48.172;17.070;2023-05-16T07:32:59;9.98;;;8.98;;
14876;SDS011;69691;48.172;17.070;2023-05-16T07:35:24;17.15;;;9.60;;
14876;SDS011;69691;48.172;17.070;2023-05-16T07:37:51;11.25;;;9.73;;
14876;SDS011;69691;48.172;17.070;2023-05-16T07:40:17;12.52;;;10.43;;
14876;SDS011;69691;48.172;17.070;2023-05-16T07:42:44;12.82;;;10.15;;
14876;SDS011;69691;48.172;17.070;2023-05-16T07:45:10;15.82;;;11.40;;
14876;SDS011;69691;48.172;17.070;2023-05-16T07:47:36;15.00;;;11.20;;
14876;SDS011;69691;48.172;17.070;2023-05-16T07:50:02;12.43;;;11.10;;
14876;SDS011;69691;48.172;17.070;2023-05-16T07:52:28;11.80;;;10.55;;
14876;SDS011;69691;48.172;17.070;2023-05-16T07:54:54;15.45;;;11.60;;
14876;SDS011;69691;48.172;17.070;2023-05-16T07:57:20;15.82;;;11.65;;
14876;SDS011;69691;48.172;17.070;2023-05-16T07:59:46;14.20;;;11.88;;
14876;SDS011;69691;48.172;17.070;2023-05-16T08:02:12;13.93;;;11.00;;
14876;SDS011;69691;48.172;17.070;2023-05-16T08:04:37;15.43;;;12.23;;
14876;SDS011;69691;48.172;17.070;2023-05-16T08:07:03;14.55;;;12.95;;
14876;SDS011;69691;48.172;17.070;2023-05-16T08:09:29;18.00;;;13.07;;
14876;SDS011;69691;48.172;17.070;2023-05-16T08:11:55;23.73;;;13.65;;
14876;SDS011;69691;48.172;17.070;2023-05-16T08:14:21;17.17;;;13.88;;
14876;SDS011;69691;48.172;17.070;2023-05-16T08:16:47;17.23;;;14.02;;
14876;SDS011;69691;48.172;17.070;2023-05-16T08:19:13;17.65;;;13.98;;
14876;SDS011;69691;48.172;17.070;2023-05-16T08:21:39;18.42;;;14.27;;
14876;SDS011;69691;48.172;17.070;2023-05-16T08:24:05;24.70;;;16.48;;
14876;SDS011;69691;48.172;17.070;2023-05-16T08:26:31;27.15;;;16.95;;
14876;SDS011;69691;48.172;17.070;2023-05-16T08:28:57;20.52;;;17.40;;
14876;SDS011;69691;48.172;17.070;2023-05-16T08:31:23;22.63;;;16.83;;
14876;SDS011;69691;48.172;17.070;2023-05-16T08:33:48;21.30;;;16.52;;
14876;SDS011;69691;48.172;17.070;2023-05-16T08:36:14;22.52;;;17.63;;
14876;SDS011;69691;48.172;17.070;2023-05-16T08:38:42;21.60;;;17.83;;
14876;SDS011;69691;48.172;17.070;2023-05-16T08:41:08;24.15;;;17.50;;
14876;SDS011;69691;48.172;17.070;2023-05-16T08:43:34;22.08;;;17.15;;
14876;SDS011;69691;48.172;17.070;2023-05-16T08:46:00;19.73;;;17.45;;
14876;SDS011;69691;48.172;17.070;2023-05-16T08:48:26;22.77;;;20.02;;
14876;SDS011;69691;48.172;17.070;2023-05-16T08:50:53;22.38;;;19.70;;
14876;SDS011;69691;48.172;17.070;2023-05-16T08:53:20;23.75;;;20.73;;
14876;SDS011;69691;48.172;17.070;2023-05-16T08:55:51;23.93;;;20.20;;
14876;SDS011;69691;48.172;17.070;2023-05-16T08:58:18;23.90;;;19.20;;
14876;SDS011;69691;48.172;17.070;2023-05-16T09:00:44;23.58;;;19.42;;
14876;SDS011;69691;48.172;17.070;2023-05-16T09:03:10;18.63;;;16.73;;
14876;SDS011;69691;48.172;17.070;2023-05-16T09:05:37;21.40;;;18.63;;
14876;SDS011;69691;48.172;17.070;2023-05-16T09:08:04;30.88;;;17.70;;
14876;SDS011;69691;48.172;17.070;2023-05-16T09:10:30;19.95;;;15.95;;
14876;SDS011;69691;48.172;17.070;2023-05-16T09:12:56;18.20;;;16.15;;
14876;SDS011;69691;48.172;17.070;2023-05-16T09:15:22;15.25;;;13.60;;
14876;SDS011;69691;48.172;17.070;2023-05-16T09:17:48;17.23;;;15.45;;
14876;SDS011;69691;48.172;17.070;2023-05-16T09:20:15;20.55;;;15.18;;
14876;SDS011;69691;48.172;17.070;2023-05-16T09:22:53;16.55;;;14.80;;
14876;SDS011;69691;48.172;17.070;2023-05-16T09:25:21;18.75;;;15.73;;
14876;SDS011;69691;48.172;17.070;2023-05-16T09:27:52;19.00;;;14.52;;
14876;SDS011;69691;48.172;17.070;2023-05-16T09:30:22;21.83;;;14.88;;
14876;SDS011;69691;48.172;17.070;2023-05-16T09:32:58;19.70;;;15.68;;
14876;SDS011;69691;48.172;17.070;2023-05-16T09:35:24;18.67;;;14.50;;
14876;SDS011;69691;48.172;17.070;2023-05-16T09:37:51;27.73;;;14.07;;
14876;SDS011;69691;48.172;17.070;2023-05-16T09:40:20;17.10;;;14.00;;
14876;SDS011;69691;48.172;17.070;2023-05-16T09:42:51;19.98;;;14.32;;
14876;SDS011;69691;48.172;17.070;2023-05-16T09:48:07;21.10;;;17.05;;
14876;SDS011;69691;48.172;17.070;2023-05-16T09:50:37;22.23;;;13.68;;
14876;SDS011;69691;48.172;17.070;2023-05-16T09:53:03;19.85;;;13.35;;
14876;SDS011;69691;48.172;17.070;2023-05-16T09:55:30;17.25;;;13.98;;
14876;SDS011;69691;48.172;17.070;2023-05-16T09:57:56;18.58;;;14.25;;
14876;SDS011;69691;48.172;17.070;2023-05-16T10:00:29;14.35;;;12.93;;
14876;SDS011;69691;48.172;17.070;2023-05-16T10:02:57;20.27;;;13.98;;
14876;SDS011;69691;48.172;17.070;2023-05-16T10:05:25;19.05;;;13.00;;
14876;SDS011;69691;48.172;17.070;2023-05-16T10:07:54;18.52;;;15.02;;
14876;SDS011;69691;48.172;17.070;2023-05-16T10:10:22;15.55;;;14.00;;
14876;SDS011;69691;48.172;17.070;2023-05-16T10:12:51;16.95;;;12.60;;
14876;SDS011;69691;48.172;17.070;2023-05-16T10:15:18;15.90;;;14.32;;
14876;SDS011;69691;48.172;17.070;2023-05-16T10:17:47;15.50;;;13.68;;
14876;SDS011;69691;48.172;17.070;2023-05-16T10:20:17;18.38;;;15.55;;
14876;SDS011;69691;48.172;17.070;2023-05-16T10:22:45;21.17;;;16.08;;
14876;SDS011;69691;48.172;17.070;2023-05-16T10:28:05;16.17;;;14.63;;
14876;SDS011;69691;48.172;17.070;2023-05-16T10:30:33;22.38;;;17.15;;
14876;SDS011;69691;48.172;17.070;2023-05-16T10:33:00;18.42;;;16.42;;
14876;SDS011;69691;48.172;17.070;2023-05-16T10:35:28;20.55;;;16.63;;
14876;SDS011;69691;48.172;17.070;2023-05-16T10:37:55;20.85;;;16.50;;
14876;SDS011;69691;48.172;17.070;2023-05-16T10:40:23;23.05;;;19.15;;
14876;SDS011;69691;48.172;17.070;2023-05-16T10:43:02;21.75;;;17.48;;
14876;SDS011;69691;48.172;17.070;2023-05-16T10:45:30;28.92;;;20.65;;
14876;SDS011;69691;48.172;17.070;2023-05-16T10:47:57;21.63;;;18.65;;
14876;SDS011;69691;48.172;17.070;2023-05-16T10:50:33;19.73;;;17.23;;
14876;SDS011;69691;48.172;17.070;2023-05-16T10:59:00;19.30;;;17.15;;
14876;SDS011;69691;48.172;17.070;2023-05-16T11:01:14;20.48;;;18.25;;
14876;SDS011;69691;48.172;17.070;2023-05-16T11:06:26;27.05;;;16.77;;
14876;SDS011;69691;48.172;17.070;2023-05-16T11:14:20;20.83;;;16.58;;
14876;SDS011;69691;48.172;17.070;2023-05-16T11:16:50;20.70;;;15.75;;
14876;SDS011;69691;48.172;17.070;2023-05-16T11:19:30;21.83;;;15.00;;
14876;SDS011;69691;48.172;17.070;2023-05-16T11:22:11;15.07;;;12.75;;
14876;SDS011;69691;48.172;17.070;2023-05-16T11:27:28;17.00;;;13.93;;
14876;SDS011;69691;48.172;17.070;2023-05-16T11:32:34;17.55;;;14.77;;
14876;SDS011;69691;48.172;17.070;2023-05-16T11:35:03;19.25;;;16.33;;
14876;SDS011;69691;48.172;17.070;2023-05-16T11:37:31;26.38;;;16.30;;
14876;SDS011;69691;48.172;17.070;2023-05-16T11:39:57;19.23;;;14.77;;
14876;SDS011;69691;48.172;17.070;2023-05-16T11:42:33;23.73;;;17.25;;
14876;SDS011;69691;48.172;17.070;2023-05-16T11:45:09;20.95;;;16.02;;
14876;SDS011;69691;48.172;17.070;2023-05-16T11:47:41;18.15;;;16.27;;
14876;SDS011;69691;48.172;17.070;2023-05-16T11:50:12;19.73;;;16.95;;
14876;SDS011;69691;48.172;17.070;2023-05-16T11:52:44;16.92;;;15.15;;
14876;SDS011;69691;48.172;17.070;2023-05-16T11:55:22;21.00;;;16.85;;
14876;SDS011;69691;48.172;17.070;2023-05-16T11:57:51;14.50;;;12.20;;
14876;SDS011;69691;48.172;17.070;2023-05-16T12:00:21;20.08;;;17.27;;
14876;SDS011;69691;48.172;17.070;2023-05-16T12:02:51;18.20;;;16.00;;
14876;SDS011;69691;48.172;17.070;2023-05-16T12:05:27;17.88;;;16.08;;
14876;SDS011;69691;48.172;17.070;2023-05-16T12:07:55;17.60;;;15.18;;
14876;SDS011;69691;48.172;17.070;2023-05-16T12:10:21;18.33;;;15.68;;
14876;SDS011;69691;48.172;17.070;2023-05-16T12:12:47;19.50;;;14.80;;
14876;SDS011;69691;48.172;17.070;2023-05-16T12:15:16;17.38;;;14.85;;
14876;SDS011;69691;48.172;17.070;2023-05-16T12:17:43;18.42;;;16.42;;
14876;SDS011;69691;48.172;17.070;2023-05-16T12:20:11;19.35;;;17.27;;
14876;SDS011;69691;48.172;17.070;2023-05-16T12:22:40;26.45;;;19.45;;
14876;SDS011;69691;48.172;17.070;2023-05-16T12:25:24;19.30;;;16.88;;
14876;SDS011;69691;48.172;17.070;2023-05-16T12:27:53;20.70;;;18.40;;
14876;SDS011;69691;48.172;17.070;2023-05-16T12:30:23;24.48;;;19.45;;
14876;SDS011;69691;48.172;17.070;2023-05-16T12:33:03;25.92;;;20.50;;
14876;SDS011;69691;48.172;17.070;2023-05-16T12:35:37;21.38;;;17.75;;
14876;SDS011;69691;48.172;17.070;2023-05-16T12:38:06;19.40;;;17.30;;
14876;SDS011;69691;48.172;17.070;2023-05-16T12:40:38;21.85;;;17.90;;
14876;SDS011;69691;48.172;17.070;2023-05-16T12:43:15;18.63;;;16.70;;
14876;SDS011;69691;48.172;17.070;2023-05-16T12:45:51;23.40;;;16.73;;
14876;SDS011;69691;48.172;17.070;2023-05-16T12:48:22;20.40;;;16.90;;
14876;SDS011;69691;48.172;17.070;2023-05-16T12:50:53;21.63;;;17.75;;
14876;SDS011;69691;48.172;17.070;2023-05-16T12:53:19;21.40;;;18.77;;
14876;SDS011;69691;48.172;17.070;2023-05-16T12:55:45;23.90;;;17.85;;
14876;SDS011;69691;48.172;17.070;2023-05-16T12:58:11;21.17;;;17.30;;
14876;SDS011;69691;48.172;17.070;2023-05-16T13:00:37;21.10;;;19.15;;
14876;SDS011;69691;48.172;17.070;2023-05-16T13:03:04;21.33;;;18.85;;
14876;SDS011;69691;48.172;17.070;2023-05-16T13:05:31;21.33;;;19.13;;
14876;SDS011;69691;48.172;17.070;2023-05-16T13:07:57;22.35;;;19.05;;
14876;SDS011;69691;48.172;17.070;2023-05-16T13:10:23;24.58;;;19.92;;
14876;SDS011;69691;48.172;17.070;2023-05-16T13:12:50;22.13;;;19.80;;
14876;SDS011;69691;48.172;17.070;2023-05-16T13:15:16;23.48;;;20.50;;
14876;SDS011;69691;48.172;17.070;2023-05-16T13:17:42;21.05;;;18.95;;
14876;SDS011;69691;48.172;17.070;2023-05-16T13:20:08;20.85;;;18.63;;
14876;SDS011;69691;48.172;17.070;2023-05-16T13:22:37;22.88;;;18.90;;
14876;SDS011;69691;48.172;17.070;2023-05-16T13:25:04;18.27;;;16.30;;
14876;SDS011;69691;48.172;17.070;2023-05-16T13:27:31;20.27;;;17.77;;
14876;SDS011;69691;48.172;17.070;2023-05-16T13:29:57;20.92;;;18.73;;
14876;SDS011;69691;48.172;17.070;2023-05-16T13:32:24;21.00;;;18.50;;
14876;SDS011;69691;48.172;17.070;2023-05-16T13:34:51;20.02;;;17.95;;
14876;SDS011;69691;48.172;17.070;2023-05-16T13:37:17;19.17;;;17.25;;
14876;SDS011;69691;48.172;17.070;2023-05-16T13:39:43;18.33;;;16.52;;
14876;SDS011;69691;48.172;17.070;2023-05-16T13:42:09;18.00;;;16.20;;
14876;SDS011;69691;48.172;17.070;2023-05-16T13:44:35;20.98;;;17.30;;
14876;SDS011;69691;48.172;17.070;2023-05-16T13:47:01;20.83;;;18.63;;
14876;SDS011;69691;48.172;17.070;2023-05-16T13:49:27;17.92;;;16.13;;
14876;SDS011;69691;48.172;17.070;2023-05-16T13:52:00;17.80;;;15.93;;
14876;SDS011;69691;48.172;17.070;2023-05-16T13:54:26;19.70;;;16.83;;
14876;SDS011;69691;48.172;17.070;2023-05-16T13:56:52;17.10;;;15.40;;
14876;SDS011;69691;48.172;17.070;2023-05-16T13:59:18;16.95;;;15.20;;
14876;SDS011;69691;48.172;17.070;2023-05-16T14:01:44;18.73;;;16.70;;
14876;SDS011;69691;48.172;17.070;2023-05-16T14:04:10;17.20;;;15.60;;
14876;SDS011;69691;48.172;17.070;2023-05-16T14:06:36;13.40;;;11.82;;
14876;SDS011;69691;48.172;17.070;2023-05-16T14:09:02;15.60;;;12.68;;
14876;SDS011;69691;48.172;17.070;2023-05-16T14:11:29;15.13;;;13.23;;
14876;SDS011;69691;48.172;17.070;2023-05-16T14:13:55;9.02;;;7.93;;
14876;SDS011;69691;48.172;17.070;2023-05-16T14:16:22;9.02;;;8.23;;
14876;SDS011;69691;48.172;17.070;2023-05-16T14:18:48;12.25;;;10.98;;
14876;SDS011;69691;48.172;17.070;2023-05-16T14:21:13;22.38;;;9.55;;
14876;SDS011;69691;48.172;17.070;2023-05-16T14:23:39;9.45;;;8.55;;
14876;SDS011;69691;48.172;17.070;2023-05-16T14:26:05;12.35;;;8.05;;
14876;SDS011;69691;48.172;17.070;2023-05-16T14:28:31;12.77;;;8.77;;
14876;SDS011;69691;48.172;17.070;2023-05-16T14:31:00;14.60;;;7.93;;
14876;SDS011;69691;48.172;17.070;2023-05-16T14:33:26;10.25;;;8.75;;
14876;SDS011;69691;48.172;17.070;2023-05-16T14:35:52;9.30;;;8.40;;
14876;SDS011;69691;48.172;17.070;2023-05-16T14:38:19;10.13;;;7.13;;
14876;SDS011;69691;48.172;17.070;2023-05-16T14:40:45;6.95;;;6.25;;
14876;SDS011;69691;48.172;17.070;2023-05-16T14:43:11;7.75;;;6.72;;
14876;SDS011;69691;48.172;17.070;2023-05-16T14:45:37;6.15;;;5.72;;
14876;SDS011;69691;48.172;17.070;2023-05-16T14:48:06;6.65;;;5.88;;
14876;SDS011;69691;48.172;17.070;2023-05-16T14:50:32;6.78;;;6.20;;
14876;SDS011;69691;48.172;17.070;2023-05-16T14:52:58;7.07;;;6.18;;
14876;SDS011;69691;48.172;17.070;2023-05-16T14:55:24;10.07;;;7.22;;
14876;SDS011;69691;48.172;17.070;2023-05-16T14:57:50;7.43;;;6.15;;
14876;SDS011;69691;48.172;17.070;2023-05-16T15:00:17;8.50;;;6.60;;
14876;SDS011;69691;48.172;17.070;2023-05-16T15:02:49;8.88;;;7.05;;